Terminal Aerodrome Forecast
Issued by NWS

Home | Current Version | Previous Version | Text Only | Print | Product List | Glossary On
Versions: 1 2 3 4 5 6 7 8 9 10 11 12 13 14 15 16 17
000
FTAK31 PAJN 060500
TAFAYA
TAF
PAYA 060520Z 0606/0706 VRB03KT P6SM SKC
     FM060900 00000KT 1SM BR BKN003
     FM061100 00000KT 1/2SM FG OVC001
     FM061600 VRB03KT P6SM OVC005
     FM062100 27007KT P6SM BKN025
      AMD LTD TO CLD VIS AND WIND 0606/0610=

USA.gov is the U.S. government's official web portal to all federal, state and local government web resources and services.